sensor_id;sensor_type;location;lat;lon;timestamp;P1;durP1;ratioP1;P2;durP2;ratioP2
57241;SDS011;43095;53.302;5.786;2023-06-10T00:00:45;18.60;;;9.90;;
57241;SDS011;43095;53.302;5.786;2023-06-10T00:03:12;15.63;;;9.45;;
57241;SDS011;43095;53.302;5.786;2023-06-10T00:05:41;16.02;;;9.93;;
57241;SDS011;43095;53.302;5.786;2023-06-10T00:08:08;21.27;;;10.30;;
57241;SDS011;43095;53.302;5.786;2023-06-10T00:10:37;18.67;;;10.20;;
57241;SDS011;43095;53.302;5.786;2023-06-10T00:13:05;17.88;;;10.23;;
57241;SDS011;43095;53.302;5.786;2023-06-10T00:15:36;25.08;;;10.38;;
57241;SDS011;43095;53.302;5.786;2023-06-10T00:18:04;18.13;;;10.98;;
57241;SDS011;43095;53.302;5.786;2023-06-10T00:20:32;16.73;;;9.68;;
57241;SDS011;43095;53.302;5.786;2023-06-10T00:22:59;15.00;;;9.85;;
57241;SDS011;43095;53.302;5.786;2023-06-10T00:25:27;19.30;;;9.40;;
57241;SDS011;43095;53.302;5.786;2023-06-10T00:27:55;16.08;;;9.75;;
57241;SDS011;43095;53.302;5.786;2023-06-10T00:30:22;18.77;;;10.25;;
57241;SDS011;43095;53.302;5.786;2023-06-10T00:32:49;16.10;;;9.57;;
57241;SDS011;43095;53.302;5.786;2023-06-10T00:35:16;16.80;;;9.05;;
57241;SDS011;43095;53.302;5.786;2023-06-10T00:37:43;12.68;;;9.27;;
57241;SDS011;43095;53.302;5.786;2023-06-10T00:40:10;19.52;;;9.70;;
57241;SDS011;43095;53.302;5.786;2023-06-10T00:42:37;20.40;;;9.77;;
57241;SDS011;43095;53.302;5.786;2023-06-10T00:45:05;17.05;;;9.68;;
57241;SDS011;43095;53.302;5.786;2023-06-10T00:47:35;16.38;;;10.05;;
57241;SDS011;43095;53.302;5.786;2023-06-10T00:50:02;15.00;;;10.27;;
57241;SDS011;43095;53.302;5.786;2023-06-10T00:52:29;16.38;;;9.25;;
57241;SDS011;43095;53.302;5.786;2023-06-10T00:54:57;16.65;;;9.43;;
57241;SDS011;43095;53.302;5.786;2023-06-10T00:57:25;16.42;;;9.90;;
57241;SDS011;43095;53.302;5.786;2023-06-10T00:59:53;15.88;;;8.98;;
57241;SDS011;43095;53.302;5.786;2023-06-10T01:02:20;13.98;;;8.48;;
57241;SDS011;43095;53.302;5.786;2023-06-10T01:04:48;17.38;;;9.13;;
57241;SDS011;43095;53.302;5.786;2023-06-10T01:07:30;15.15;;;9.40;;
57241;SDS011;43095;53.302;5.786;2023-06-10T01:10:08;15.95;;;8.98;;
57241;SDS011;43095;53.302;5.786;2023-06-10T01:15:06;18.83;;;9.63;;
57241;SDS011;43095;53.302;5.786;2023-06-10T01:17:37;16.10;;;9.40;;
57241;SDS011;43095;53.302;5.786;2023-06-10T01:20:25;17.45;;;10.05;;
57241;SDS011;43095;53.302;5.786;2023-06-10T01:22:56;15.00;;;8.68;;
57241;SDS011;43095;53.302;5.786;2023-06-10T01:25:25;16.33;;;10.57;;
57241;SDS011;43095;53.302;5.786;2023-06-10T01:28:02;14.35;;;9.50;;
57241;SDS011;43095;53.302;5.786;2023-06-10T01:30:30;15.70;;;10.40;;
57241;SDS011;43095;53.302;5.786;2023-06-10T01:33:07;20.30;;;9.50;;
57241;SDS011;43095;53.302;5.786;2023-06-10T01:35:35;21.30;;;9.85;;
57241;SDS011;43095;53.302;5.786;2023-06-10T01:38:03;17.88;;;10.05;;
57241;SDS011;43095;53.302;5.786;2023-06-10T01:40:31;17.08;;;10.30;;
57241;SDS011;43095;53.302;5.786;2023-06-10T01:42:58;18.35;;;10.48;;
57241;SDS011;43095;53.302;5.786;2023-06-10T01:45:25;17.88;;;9.80;;
57241;SDS011;43095;53.302;5.786;2023-06-10T01:47:52;14.55;;;9.02;;
57241;SDS011;43095;53.302;5.786;2023-06-10T01:50:20;16.77;;;10.55;;
57241;SDS011;43095;53.302;5.786;2023-06-10T01:52:47;17.58;;;11.15;;
57241;SDS011;43095;53.302;5.786;2023-06-10T01:55:14;17.27;;;9.95;;
57241;SDS011;43095;53.302;5.786;2023-06-10T01:57:43;16.05;;;10.02;;
57241;SDS011;43095;53.302;5.786;2023-06-10T02:00:10;15.88;;;9.05;;
57241;SDS011;43095;53.302;5.786;2023-06-10T02:02:40;18.83;;;10.57;;
57241;SDS011;43095;53.302;5.786;2023-06-10T02:05:07;18.95;;;10.40;;
57241;SDS011;43095;53.302;5.786;2023-06-10T02:07:35;15.88;;;10.57;;
57241;SDS011;43095;53.302;5.786;2023-06-10T02:10:02;17.95;;;10.70;;
57241;SDS011;43095;53.302;5.786;2023-06-10T02:12:30;17.83;;;11.43;;
57241;SDS011;43095;53.302;5.786;2023-06-10T02:14:58;17.02;;;10.57;;
57241;SDS011;43095;53.302;5.786;2023-06-10T02:17:25;16.98;;;10.13;;
57241;SDS011;43095;53.302;5.786;2023-06-10T02:19:52;15.52;;;9.65;;
57241;SDS011;43095;53.302;5.786;2023-06-10T02:22:21;15.30;;;10.63;;
57241;SDS011;43095;53.302;5.786;2023-06-10T02:24:48;16.08;;;10.40;;
57241;SDS011;43095;53.302;5.786;2023-06-10T02:27:15;14.30;;;9.65;;
57241;SDS011;43095;53.302;5.786;2023-06-10T02:29:42;14.15;;;9.60;;
57241;SDS011;43095;53.302;5.786;2023-06-10T02:32:10;16.50;;;9.32;;
57241;SDS011;43095;53.302;5.786;2023-06-10T02:34:41;20.40;;;10.30;;
57241;SDS011;43095;53.302;5.786;2023-06-10T02:37:10;18.15;;;10.70;;
57241;SDS011;43095;53.302;5.786;2023-06-10T02:39:37;20.30;;;10.98;;
57241;SDS011;43095;53.302;5.786;2023-06-10T02:42:08;15.30;;;10.02;;
57241;SDS011;43095;53.302;5.786;2023-06-10T02:44:37;20.65;;;10.40;;
57241;SDS011;43095;53.302;5.786;2023-06-10T02:47:07;15.13;;;9.70;;
57241;SDS011;43095;53.302;5.786;2023-06-10T02:49:36;13.68;;;8.95;;
57241;SDS011;43095;53.302;5.786;2023-06-10T02:52:03;15.65;;;9.68;;
57241;SDS011;43095;53.302;5.786;2023-06-10T02:54:30;14.43;;;8.73;;
57241;SDS011;43095;53.302;5.786;2023-06-10T02:56:57;19.10;;;9.75;;
57241;SDS011;43095;53.302;5.786;2023-06-10T02:59:26;16.52;;;9.32;;
57241;SDS011;43095;53.302;5.786;2023-06-10T03:01:55;13.02;;;8.38;;
57241;SDS011;43095;53.302;5.786;2023-06-10T03:04:24;14.85;;;9.18;;
57241;SDS011;43095;53.302;5.786;2023-06-10T03:07:00;13.90;;;8.38;;
57241;SDS011;43095;53.302;5.786;2023-06-10T03:09:33;16.05;;;10.07;;
57241;SDS011;43095;53.302;5.786;2023-06-10T03:12:01;15.27;;;9.35;;
57241;SDS011;43095;53.302;5.786;2023-06-10T03:14:34;15.70;;;9.18;;
57241;SDS011;43095;53.302;5.786;2023-06-10T03:17:01;14.38;;;9.05;;
57241;SDS011;43095;53.302;5.786;2023-06-10T03:19:31;13.82;;;8.75;;
57241;SDS011;43095;53.302;5.786;2023-06-10T03:22:10;17.52;;;9.60;;
57241;SDS011;43095;53.302;5.786;2023-06-10T03:24:43;13.15;;;7.50;;
57241;SDS011;43095;53.302;5.786;2023-06-10T03:27:14;17.10;;;8.13;;
57241;SDS011;43095;53.302;5.786;2023-06-10T03:29:43;13.25;;;9.10;;
57241;SDS011;43095;53.302;5.786;2023-06-10T03:32:11;17.92;;;8.85;;
57241;SDS011;43095;53.302;5.786;2023-06-10T03:34:40;14.00;;;8.60;;
57241;SDS011;43095;53.302;5.786;2023-06-10T03:37:08;13.65;;;9.23;;
57241;SDS011;43095;53.302;5.786;2023-06-10T03:39:36;12.57;;;7.85;;
57241;SDS011;43095;53.302;5.786;2023-06-10T03:42:04;13.73;;;8.38;;
57241;SDS011;43095;53.302;5.786;2023-06-10T03:44:31;14.35;;;8.02;;
57241;SDS011;43095;53.302;5.786;2023-06-10T03:46:59;15.68;;;8.95;;
57241;SDS011;43095;53.302;5.786;2023-06-10T03:49:26;15.95;;;9.23;;
57241;SDS011;43095;53.302;5.786;2023-06-10T03:51:59;16.92;;;8.20;;
57241;SDS011;43095;53.302;5.786;2023-06-10T03:54:26;18.40;;;8.65;;
57241;SDS011;43095;53.302;5.786;2023-06-10T03:56:53;18.77;;;8.98;;
57241;SDS011;43095;53.302;5.786;2023-06-10T03:59:20;15.77;;;9.18;;
57241;SDS011;43095;53.302;5.786;2023-06-10T04:01:47;18.20;;;8.52;;
57241;SDS011;43095;53.302;5.786;2023-06-10T04:04:15;16.55;;;8.43;;
57241;SDS011;43095;53.302;5.786;2023-06-10T04:06:45;15.43;;;8.38;;
57241;SDS011;43095;53.302;5.786;2023-06-10T04:09:13;14.30;;;8.55;;
57241;SDS011;43095;53.302;5.786;2023-06-10T04:11:41;13.60;;;8.55;;
57241;SDS011;43095;53.302;5.786;2023-06-10T04:14:08;16.30;;;8.82;;
57241;SDS011;43095;53.302;5.786;2023-06-10T04:16:37;16.13;;;9.50;;
57241;SDS011;43095;53.302;5.786;2023-06-10T04:19:05;16.02;;;8.50;;
57241;SDS011;43095;53.302;5.786;2023-06-10T04:21:32;15.75;;;8.07;;
57241;SDS011;43095;53.302;5.786;2023-06-10T04:23:59;14.05;;;7.93;;
57241;SDS011;43095;53.302;5.786;2023-06-10T04:26:27;13.38;;;7.85;;
57241;SDS011;43095;53.302;5.786;2023-06-10T04:28:54;12.10;;;7.82;;
57241;SDS011;43095;53.302;5.786;2023-06-10T04:31:22;13.93;;;8.57;;
57241;SDS011;43095;53.302;5.786;2023-06-10T04:33:49;19.20;;;8.50;;
57241;SDS011;43095;53.302;5.786;2023-06-10T04:36:17;14.15;;;8.23;;
57241;SDS011;43095;53.302;5.786;2023-06-10T04:38:44;14.82;;;8.18;;
57241;SDS011;43095;53.302;5.786;2023-06-10T04:41:11;15.35;;;8.70;;
57241;SDS011;43095;53.302;5.786;2023-06-10T04:43:38;16.83;;;9.02;;
57241;SDS011;43095;53.302;5.786;2023-06-10T04:46:05;14.82;;;8.13;;
57241;SDS011;43095;53.302;5.786;2023-06-10T04:48:35;18.38;;;7.90;;
57241;SDS011;43095;53.302;5.786;2023-06-10T04:51:03;16.67;;;7.75;;
57241;SDS011;43095;53.302;5.786;2023-06-10T04:53:34;14.27;;;8.40;;
57241;SDS011;43095;53.302;5.786;2023-06-10T04:56:01;15.80;;;8.45;;
57241;SDS011;43095;53.302;5.786;2023-06-10T04:58:28;18.45;;;8.95;;
57241;SDS011;43095;53.302;5.786;2023-06-10T05:00:55;17.40;;;8.25;;
57241;SDS011;43095;53.302;5.786;2023-06-10T05:03:22;17.20;;;7.65;;
57241;SDS011;43095;53.302;5.786;2023-06-10T05:05:50;19.50;;;9.07;;
57241;SDS011;43095;53.302;5.786;2023-06-10T05:08:17;12.75;;;7.55;;
57241;SDS011;43095;53.302;5.786;2023-06-10T05:10:44;15.93;;;8.15;;
57241;SDS011;43095;53.302;5.786;2023-06-10T05:13:11;20.33;;;8.77;;
57241;SDS011;43095;53.302;5.786;2023-06-10T05:15:38;18.33;;;8.88;;
57241;SDS011;43095;53.302;5.786;2023-06-10T05:18:05;16.83;;;8.75;;
57241;SDS011;43095;53.302;5.786;2023-06-10T05:20:32;18.58;;;8.65;;
57241;SDS011;43095;53.302;5.786;2023-06-10T05:22:59;14.02;;;8.07;;
57241;SDS011;43095;53.302;5.786;2023-06-10T05:25:26;18.80;;;7.82;;
57241;SDS011;43095;53.302;5.786;2023-06-10T05:27:54;16.83;;;8.07;;
57241;SDS011;43095;53.302;5.786;2023-06-10T05:30:21;16.20;;;8.30;;
57241;SDS011;43095;53.302;5.786;2023-06-10T05:32:48;18.00;;;9.25;;
57241;SDS011;43095;53.302;5.786;2023-06-10T05:35:15;19.58;;;8.50;;
57241;SDS011;43095;53.302;5.786;2023-06-10T05:37:42;18.52;;;8.93;;
57241;SDS011;43095;53.302;5.786;2023-06-10T05:40:10;15.93;;;8.45;;
57241;SDS011;43095;53.302;5.786;2023-06-10T05:42:37;17.70;;;8.77;;
57241;SDS011;43095;53.302;5.786;2023-06-10T05:45:05;13.55;;;8.02;;
57241;SDS011;43095;53.302;5.786;2023-06-10T05:47:34;18.10;;;8.77;;
57241;SDS011;43095;53.302;5.786;2023-06-10T05:50:01;17.98;;;8.23;;
57241;SDS011;43095;53.302;5.786;2023-06-10T05:52:27;15.13;;;7.90;;
57241;SDS011;43095;53.302;5.786;2023-06-10T05:54:54;15.52;;;8.07;;
57241;SDS011;43095;53.302;5.786;2023-06-10T05:57:22;13.95;;;7.30;;
57241;SDS011;43095;53.302;5.786;2023-06-10T05:59:49;14.45;;;8.52;;
57241;SDS011;43095;53.302;5.786;2023-06-10T06:02:15;17.02;;;8.30;;
57241;SDS011;43095;53.302;5.786;2023-06-10T06:04:42;18.60;;;8.27;;
57241;SDS011;43095;53.302;5.786;2023-06-10T06:07:10;14.90;;;8.73;;
57241;SDS011;43095;53.302;5.786;2023-06-10T06:09:36;13.43;;;7.38;;
57241;SDS011;43095;53.302;5.786;2023-06-10T06:12:03;18.00;;;8.70;;
57241;SDS011;43095;53.302;5.786;2023-06-10T06:14:36;14.98;;;7.78;;
57241;SDS011;43095;53.302;5.786;2023-06-10T06:17:04;16.38;;;8.75;;
57241;SDS011;43095;53.302;5.786;2023-06-10T06:19:31;19.48;;;8.15;;
57241;SDS011;43095;53.302;5.786;2023-06-10T06:21:58;16.80;;;9.10;;
57241;SDS011;43095;53.302;5.786;2023-06-10T06:24:25;21.85;;;9.30;;
57241;SDS011;43095;53.302;5.786;2023-06-10T06:26:52;20.98;;;8.00;;
57241;SDS011;43095;53.302;5.786;2023-06-10T06:29:19;16.75;;;8.30;;
57241;SDS011;43095;53.302;5.786;2023-06-10T06:31:46;15.50;;;8.82;;
57241;SDS011;43095;53.302;5.786;2023-06-10T06:34:13;18.40;;;8.68;;
57241;SDS011;43095;53.302;5.786;2023-06-10T06:36:42;17.08;;;8.60;;
57241;SDS011;43095;53.302;5.786;2023-06-10T06:39:09;13.95;;;8.25;;
57241;SDS011;43095;53.302;5.786;2023-06-10T06:41:36;17.25;;;8.30;;
57241;SDS011;43095;53.302;5.786;2023-06-10T06:44:03;14.90;;;7.82;;
57241;SDS011;43095;53.302;5.786;2023-06-10T06:46:35;14.60;;;8.20;;
57241;SDS011;43095;53.302;5.786;2023-06-10T06:49:02;14.77;;;7.88;;
57241;SDS011;43095;53.302;5.786;2023-06-10T06:51:29;17.77;;;8.43;;
57241;SDS011;43095;53.302;5.786;2023-06-10T06:53:57;16.48;;;7.80;;
57241;SDS011;43095;53.302;5.786;2023-06-10T06:56:25;13.73;;;7.88;;
57241;SDS011;43095;53.302;5.786;2023-06-10T06:58:54;13.65;;;7.82;;
57241;SDS011;43095;53.302;5.786;2023-06-10T07:01:24;13.90;;;7.68;;
57241;SDS011;43095;53.302;5.786;2023-06-10T07:03:51;18.33;;;8.60;;
57241;SDS011;43095;53.302;5.786;2023-06-10T07:06:18;10.98;;;7.35;;
57241;SDS011;43095;53.302;5.786;2023-06-10T07:08:44;17.63;;;6.85;;
57241;SDS011;43095;53.302;5.786;2023-06-10T07:11:11;15.77;;;7.65;;
57241;SDS011;43095;53.302;5.786;2023-06-10T07:13:38;17.95;;;8.43;;
57241;SDS011;43095;53.302;5.786;2023-06-10T07:16:05;12.43;;;7.20;;
57241;SDS011;43095;53.302;5.786;2023-06-10T07:18:32;14.05;;;7.43;;
57241;SDS011;43095;53.302;5.786;2023-06-10T07:20:59;13.80;;;8.30;;
57241;SDS011;43095;53.302;5.786;2023-06-10T07:23:28;12.07;;;7.65;;
57241;SDS011;43095;53.302;5.786;2023-06-10T07:25:55;11.95;;;6.93;;
57241;SDS011;43095;53.302;5.786;2023-06-10T07:28:22;14.10;;;7.60;;
57241;SDS011;43095;53.302;5.786;2023-06-10T07:30:49;15.07;;;7.13;;
57241;SDS011;43095;53.302;5.786;2023-06-10T07:33:19;14.13;;;7.22;;
57241;SDS011;43095;53.302;5.786;2023-06-10T07:35:45;11.93;;;6.40;;
57241;SDS011;43095;53.302;5.786;2023-06-10T07:38:13;15.52;;;7.93;;
57241;SDS011;43095;53.302;5.786;2023-06-10T07:40:40;15.00;;;7.57;;
57241;SDS011;43095;53.302;5.786;2023-06-10T07:43:07;16.27;;;8.02;;
57241;SDS011;43095;53.302;5.786;2023-06-10T07:45:34;16.63;;;8.35;;
57241;SDS011;43095;53.302;5.786;2023-06-10T07:48:02;16.02;;;8.85;;
57241;SDS011;43095;53.302;5.786;2023-06-10T07:50:29;22.42;;;9.98;;
57241;SDS011;43095;53.302;5.786;2023-06-10T07:52:56;17.92;;;9.82;;
57241;SDS011;43095;53.302;5.786;2023-06-10T07:55:23;16.00;;;7.82;;
57241;SDS011;43095;53.302;5.786;2023-06-10T07:57:52;14.75;;;6.78;;
57241;SDS011;43095;53.302;5.786;2023-06-10T08:00:20;17.17;;;6.72;;
57241;SDS011;43095;53.302;5.786;2023-06-10T08:02:47;11.07;;;6.53;;
57241;SDS011;43095;53.302;5.786;2023-06-10T08:05:14;11.65;;;6.07;;
57241;SDS011;43095;53.302;5.786;2023-06-10T08:07:41;13.75;;;6.72;;
57241;SDS011;43095;53.302;5.786;2023-06-10T08:10:09;10.95;;;6.18;;
57241;SDS011;43095;53.302;5.786;2023-06-10T08:12:36;12.07;;;6.90;;
57241;SDS011;43095;53.302;5.786;2023-06-10T08:15:03;11.20;;;6.10;;
57241;SDS011;43095;53.302;5.786;2023-06-10T08:17:31;8.20;;;5.93;;
57241;SDS011;43095;53.302;5.786;2023-06-10T08:19:58;9.73;;;5.53;;
57241;SDS011;43095;53.302;5.786;2023-06-10T08:22:25;10.65;;;5.72;;
57241;SDS011;43095;53.302;5.786;2023-06-10T08:24:52;13.02;;;5.63;;
57241;SDS011;43095;53.302;5.786;2023-06-10T08:27:19;12.32;;;6.38;;
57241;SDS011;43095;53.302;5.786;2023-06-10T08:29:45;9.90;;;5.78;;
57241;SDS011;43095;53.302;5.786;2023-06-10T08:32:12;11.93;;;6.28;;
57241;SDS011;43095;53.302;5.786;2023-06-10T08:34:39;10.63;;;5.90;;
57241;SDS011;43095;53.302;5.786;2023-06-10T08:37:07;7.93;;;5.05;;
57241;SDS011;43095;53.302;5.786;2023-06-10T08:39:34;11.77;;;6.03;;
57241;SDS011;43095;53.302;5.786;2023-06-10T08:45:02;13.63;;;5.55;;
57241;SDS011;43095;53.302;5.786;2023-06-10T08:47:30;8.43;;;5.07;;
57241;SDS011;43095;53.302;5.786;2023-06-10T08:50:03;10.48;;;5.53;;
57241;SDS011;43095;53.302;5.786;2023-06-10T08:52:35;9.88;;;5.55;;
57241;SDS011;43095;53.302;5.786;2023-06-10T08:55:05;9.57;;;5.13;;
57241;SDS011;43095;53.302;5.786;2023-06-10T08:58:04;15.50;;;5.63;;
57241;SDS011;43095;53.302;5.786;2023-06-10T09:00:31;12.02;;;6.43;;
57241;SDS011;43095;53.302;5.786;2023-06-10T09:02:58;11.93;;;5.65;;
57241;SDS011;43095;53.302;5.786;2023-06-10T09:05:33;10.13;;;5.47;;
57241;SDS011;43095;53.302;5.786;2023-06-10T09:08:00;13.23;;;6.07;;
57241;SDS011;43095;53.302;5.786;2023-06-10T09:10:27;10.75;;;6.07;;
57241;SDS011;43095;53.302;5.786;2023-06-10T09:12:54;15.40;;;6.22;;
57241;SDS011;43095;53.302;5.786;2023-06-10T09:15:22;9.13;;;5.70;;
57241;SDS011;43095;53.302;5.786;2023-06-10T09:17:49;9.32;;;5.35;;
57241;SDS011;43095;53.302;5.786;2023-06-10T09:20:16;9.80;;;5.05;;
57241;SDS011;43095;53.302;5.786;2023-06-10T09:22:43;10.43;;;5.65;;
57241;SDS011;43095;53.302;5.786;2023-06-10T09:25:11;12.68;;;6.00;;
57241;SDS011;43095;53.302;5.786;2023-06-10T09:27:46;10.40;;;5.13;;
57241;SDS011;43095;53.302;5.786;2023-06-10T09:30:24;9.70;;;4.93;;
57241;SDS011;43095;53.302;5.786;2023-06-10T09:32:53;9.10;;;5.43;;
57241;SDS011;43095;53.302;5.786;2023-06-10T09:35:25;10.85;;;5.80;;
57241;SDS011;43095;53.302;5.786;2023-06-10T09:37:54;11.98;;;6.05;;
57241;SDS011;43095;53.302;5.786;2023-06-10T09:40:22;13.98;;;6.43;;
57241;SDS011;43095;53.302;5.786;2023-06-10T09:42:53;13.25;;;7.20;;
57241;SDS011;43095;53.302;5.786;2023-06-10T09:45:22;10.23;;;5.50;;
57241;SDS011;43095;53.302;5.786;2023-06-10T09:47:52;10.15;;;5.30;;
57241;SDS011;43095;53.302;5.786;2023-06-10T09:50:20;11.45;;;5.03;;
57241;SDS011;43095;53.302;5.786;2023-06-10T09:52:47;13.38;;;5.70;;
57241;SDS011;43095;53.302;5.786;2023-06-10T09:55:14;12.20;;;8.30;;
57241;SDS011;43095;53.302;5.786;2023-06-10T09:57:42;8.15;;;5.97;;
57241;SDS011;43095;53.302;5.786;2023-06-10T10:00:11;13.38;;;6.00;;
57241;SDS011;43095;53.302;5.786;2023-06-10T10:05:14;20.52;;;9.63;;
57241;SDS011;43095;53.302;5.786;2023-06-10T10:07:42;11.05;;;5.75;;
57241;SDS011;43095;53.302;5.786;2023-06-10T10:10:10;8.60;;;5.05;;
57241;SDS011;43095;53.302;5.786;2023-06-10T10:12:38;13.07;;;6.18;;
57241;SDS011;43095;53.302;5.786;2023-06-10T10:15:09;10.23;;;4.85;;
57241;SDS011;43095;53.302;5.786;2023-06-10T10:17:38;12.10;;;5.70;;
57241;SDS011;43095;53.302;5.786;2023-06-10T10:20:08;11.27;;;5.50;;
57241;SDS011;43095;53.302;5.786;2023-06-10T10:22:38;12.85;;;5.95;;
57241;SDS011;43095;53.302;5.786;2023-06-10T10:25:28;13.27;;;5.57;;
57241;SDS011;43095;53.302;5.786;2023-06-10T10:28:17;15.45;;;6.68;;
57241;SDS011;43095;53.302;5.786;2023-06-10T10:30:47;12.55;;;5.75;;
57241;SDS011;43095;53.302;5.786;2023-06-10T10:33:16;17.23;;;6.80;;
57241;SDS011;43095;53.302;5.786;2023-06-10T10:35:46;10.45;;;5.45;;
57241;SDS011;43095;53.302;5.786;2023-06-10T10:38:13;10.38;;;5.72;;
57241;SDS011;43095;53.302;5.786;2023-06-10T10:40:40;12.68;;;5.10;;
57241;SDS011;43095;53.302;5.786;2023-06-10T10:43:08;13.77;;;7.05;;
57241;SDS011;43095;53.302;5.786;2023-06-10T10:45:35;10.35;;;5.57;;
57241;SDS011;43095;53.302;5.786;2023-06-10T10:48:07;10.85;;;5.88;;
57241;SDS011;43095;53.302;5.786;2023-06-10T10:50:38;8.45;;;5.70;;
57241;SDS011;43095;53.302;5.786;2023-06-10T10:53:07;11.48;;;7.00;;
57241;SDS011;43095;53.302;5.786;2023-06-10T10:55:34;11.10;;;5.78;;
57241;SDS011;43095;53.302;5.786;2023-06-10T10:58:07;10.27;;;6.05;;
57241;SDS011;43095;53.302;5.786;2023-06-10T11:00:36;9.68;;;4.95;;
57241;SDS011;43095;53.302;5.786;2023-06-10T11:03:06;14.85;;;6.20;;
57241;SDS011;43095;53.302;5.786;2023-06-10T11:05:44;11.07;;;5.97;;
57241;SDS011;43095;53.302;5.786;2023-06-10T11:08:45;9.80;;;6.57;;
57241;SDS011;43095;53.302;5.786;2023-06-10T11:13:57;9.52;;;6.10;;
57241;SDS011;43095;53.302;5.786;2023-06-10T11:16:28;12.43;;;6.72;;
57241;SDS011;43095;53.302;5.786;2023-06-10T11:18:55;11.95;;;6.60;;
57241;SDS011;43095;53.302;5.786;2023-06-10T11:21:25;17.08;;;6.35;;
57241;SDS011;43095;53.302;5.786;2023-06-10T11:23:57;13.90;;;7.25;;
57241;SDS011;43095;53.302;5.786;2023-06-10T11:31:25;13.38;;;7.28;;
57241;SDS011;43095;53.302;5.786;2023-06-10T11:34:03;15.30;;;7.55;;
57241;SDS011;43095;53.302;5.786;2023-06-10T11:36:32;12.70;;;7.43;;
57241;SDS011;43095;53.302;5.786;2023-06-10T11:39:00;16.60;;;6.53;;
57241;SDS011;43095;53.302;5.786;2023-06-10T11:41:29;13.88;;;7.07;;
57241;SDS011;43095;53.302;5.786;2023-06-10T11:44:18;12.52;;;5.80;;
57241;SDS011;43095;53.302;5.786;2023-06-10T11:46:47;11.27;;;6.25;;
57241;SDS011;43095;53.302;5.786;2023-06-10T11:49:14;11.93;;;6.30;;
57241;SDS011;43095;53.302;5.786;2023-06-10T11:51:41;10.82;;;6.30;;
57241;SDS011;43095;53.302;5.786;2023-06-10T11:54:16;13.25;;;6.90;;
57241;SDS011;43095;53.302;5.786;2023-06-10T11:56:43;13.95;;;7.35;;
57241;SDS011;43095;53.302;5.786;2023-06-10T11:59:10;16.63;;;7.70;;
57241;SDS011;43095;53.302;5.786;2023-06-10T12:01:42;17.10;;;8.07;;
57241;SDS011;43095;53.302;5.786;2023-06-10T12:04:14;17.80;;;7.40;;
57241;SDS011;43095;53.302;5.786;2023-06-10T12:06:49;15.68;;;7.93;;
57241;SDS011;43095;53.302;5.786;2023-06-10T12:09:21;13.25;;;6.93;;
57241;SDS011;43095;53.302;5.786;2023-06-10T12:12:05;14.43;;;7.10;;
57241;SDS011;43095;53.302;5.786;2023-06-10T12:17:35;13.18;;;5.95;;
57241;SDS011;43095;53.302;5.786;2023-06-10T12:20:08;15.07;;;6.95;;
57241;SDS011;43095;53.302;5.786;2023-06-10T12:22:40;16.85;;;7.38;;
57241;SDS011;43095;53.302;5.786;2023-06-10T12:25:09;17.10;;;7.38;;
57241;SDS011;43095;53.302;5.786;2023-06-10T12:27:38;9.73;;;6.28;;
57241;SDS011;43095;53.302;5.786;2023-06-10T12:30:07;12.35;;;7.05;;
57241;SDS011;43095;53.302;5.786;2023-06-10T12:32:42;13.50;;;7.03;;
57241;SDS011;43095;53.302;5.786;2023-06-10T12:35:11;15.90;;;8.02;;
57241;SDS011;43095;53.302;5.786;2023-06-10T12:37:40;13.88;;;6.95;;
57241;SDS011;43095;53.302;5.786;2023-06-10T12:40:09;15.05;;;6.70;;
57241;SDS011;43095;53.302;5.786;2023-06-10T12:42:37;14.82;;;6.40;;
57241;SDS011;43095;53.302;5.786;2023-06-10T12:45:05;20.77;;;6.90;;
57241;SDS011;43095;53.302;5.786;2023-06-10T12:47:35;13.98;;;7.38;;
57241;SDS011;43095;53.302;5.786;2023-06-10T12:50:05;14.05;;;7.38;;
57241;SDS011;43095;53.302;5.786;2023-06-10T12:52:34;16.08;;;6.35;;
57241;SDS011;43095;53.302;5.786;2023-06-10T12:55:01;10.45;;;6.85;;
57241;SDS011;43095;53.302;5.786;2023-06-10T12:57:28;15.63;;;6.70;;
57241;SDS011;43095;53.302;5.786;2023-06-10T12:59:56;14.45;;;6.00;;
57241;SDS011;43095;53.302;5.786;2023-06-10T13:02:29;15.15;;;6.90;;
57241;SDS011;43095;53.302;5.786;2023-06-10T13:04:56;15.63;;;6.18;;
57241;SDS011;43095;53.302;5.786;2023-06-10T13:07:23;16.10;;;6.80;;
57241;SDS011;43095;53.302;5.786;2023-06-10T13:09:51;13.35;;;7.13;;
57241;SDS011;43095;53.302;5.786;2023-06-10T13:12:17;17.52;;;7.07;;
57241;SDS011;43095;53.302;5.786;2023-06-10T13:14:59;18.33;;;7.40;;
57241;SDS011;43095;53.302;5.786;2023-06-10T13:17:26;10.23;;;5.70;;
57241;SDS011;43095;53.302;5.786;2023-06-10T13:19:53;14.55;;;5.97;;
57241;SDS011;43095;53.302;5.786;2023-06-10T13:22:20;18.30;;;6.72;;
57241;SDS011;43095;53.302;5.786;2023-06-10T13:24:48;14.25;;;6.60;;
57241;SDS011;43095;53.302;5.786;2023-06-10T13:27:15;18.45;;;6.60;;
57241;SDS011;43095;53.302;5.786;2023-06-10T13:29:42;15.45;;;5.65;;
57241;SDS011;43095;53.302;5.786;2023-06-10T13:32:08;17.10;;;5.95;;
57241;SDS011;43095;53.302;5.786;2023-06-10T13:34:35;13.55;;;5.93;;
57241;SDS011;43095;53.302;5.786;2023-06-10T13:37:02;14.10;;;6.05;;
57241;SDS011;43095;53.302;5.786;2023-06-10T13:39:31;14.55;;;5.90;;
57241;SDS011;43095;53.302;5.786;2023-06-10T13:41:58;13.82;;;5.85;;
57241;SDS011;43095;53.302;5.786;2023-06-10T13:44:25;11.65;;;5.53;;
57241;SDS011;43095;53.302;5.786;2023-06-10T13:46:51;10.43;;;5.93;;
57241;SDS011;43095;53.302;5.786;2023-06-10T13:49:18;13.27;;;5.43;;
57241;SDS011;43095;53.302;5.786;2023-06-10T13:51:46;14.02;;;5.70;;
57241;SDS011;43095;53.302;5.786;2023-06-10T13:54:13;15.07;;;4.97;;
57241;SDS011;43095;53.302;5.786;2023-06-10T13:56:42;16.25;;;5.40;;
57241;SDS011;43095;53.302;5.786;2023-06-10T13:59:09;14.00;;;5.15;;
57241;SDS011;43095;53.302;5.786;2023-06-10T14:01:36;22.75;;;5.72;;
57241;SDS011;43095;53.302;5.786;2023-06-10T14:04:04;12.98;;;5.97;;
57241;SDS011;43095;53.302;5.786;2023-06-10T14:06:31;15.68;;;5.85;;
57241;SDS011;43095;53.302;5.786;2023-06-10T14:09:02;15.70;;;5.32;;
57241;SDS011;43095;53.302;5.786;2023-06-10T14:11:29;11.27;;;5.68;;
57241;SDS011;43095;53.302;5.786;2023-06-10T14:14:00;12.02;;;4.97;;
57241;SDS011;43095;53.302;5.786;2023-06-10T14:16:27;14.55;;;6.57;;
57241;SDS011;43095;53.302;5.786;2023-06-10T14:18:54;11.52;;;5.15;;
57241;SDS011;43095;53.302;5.786;2023-06-10T14:21:22;11.88;;;5.07;;
57241;SDS011;43095;53.302;5.786;2023-06-10T14:23:48;14.73;;;5.50;;
57241;SDS011;43095;53.302;5.786;2023-06-10T14:26:16;14.90;;;5.72;;
57241;SDS011;43095;53.302;5.786;2023-06-10T14:28:43;12.88;;;5.65;;
57241;SDS011;43095;53.302;5.786;2023-06-10T14:31:10;14.55;;;5.57;;
57241;SDS011;43095;53.302;5.786;2023-06-10T14:33:37;14.18;;;5.80;;
57241;SDS011;43095;53.302;5.786;2023-06-10T14:36:04;19.42;;;6.13;;
57241;SDS011;43095;53.302;5.786;2023-06-10T14:38:31;18.20;;;6.05;;
57241;SDS011;43095;53.302;5.786;2023-06-10T14:40:58;12.82;;;5.47;;
57241;SDS011;43095;53.302;5.786;2023-06-10T14:43:25;13.18;;;5.22;;
57241;SDS011;43095;53.302;5.786;2023-06-10T14:45:51;14.50;;;5.13;;
57241;SDS011;43095;53.302;5.786;2023-06-10T14:48:18;17.15;;;5.95;;
57241;SDS011;43095;53.302;5.786;2023-06-10T14:50:45;12.27;;;5.35;;
57241;SDS011;43095;53.302;5.786;2023-06-10T14:53:17;13.63;;;5.93;;
57241;SDS011;43095;53.302;5.786;2023-06-10T14:55:44;14.45;;;6.30;;
57241;SDS011;43095;53.302;5.786;2023-06-10T14:58:11;14.50;;;5.65;;
57241;SDS011;43095;53.302;5.786;2023-06-10T15:00:38;11.38;;;5.85;;